Home > Products > Valid Products > TAF

000
FTUS45 KFGZ 302000 AAA
TAFFLG
TAF AMD
KFLG 302058Z 3021/3118 VRB05KT 5SM -RA BR SCT004 BKN010 OVC025
      TEMPO 3021/3023 1SM -RA BR OVC004
     FM302300 VRB03KT P6SM VCSH SCT005 BKN015 OVC025
      TEMPO 3023/3103 5SM -SHRA BKN005 OVC015
     FM310300 VRB03KT 5SM -SHRA BKN005 OVC015=



000
FTUS45 KFGZ 301800 AAA
TAFINW
TAF AMD
KINW 301800Z 3018/3118 10009KT 6SM -SHRA SCT030 OVC060
      TEMPO 3019/3023 4SM -RA BKN025 OVC050
     FM310200 VRB05KT P6SM VCSH SCT030 OVC060=



000
FTUS45 KFGZ 301700
TAFFLG
TAF
KFLG 301732Z 3018/3118 07006KT 4SM -RA BR OVC005
      TEMPO 3018/3022 1SM -RA BR OVC003
     FM302300 VRB03KT P6SM VCSH SCT005 BKN015 OVC025
      TEMPO 3023/3103 5SM -SHRA BKN005 OVC015
     FM310300 VRB03KT 5SM -SHRA BKN005 OVC015=



000
FTUS45 KFGZ 301700
TAFINW
TAF
KINW 301732Z 3018/3118 12009KT 6SM -RA BKN030 OVC060
     FM310200 VRB05KT P6SM VCSH SCT030 OVC060=



000
FTUS45 KFGZ 301700
TAFPGA
TAF
KPGA 301732Z 3018/3118 04009KT 6SM -RA SCT015 OVC030
      TEMPO 3019/3023 3SM -RA BR BKN015 OVC025
     FM310800 VRB05KT P6SM VCFG SCT005 BKN025
      TEMPO 3109/3113 1SM BR OVC004
      AMD NOT SKED=



000
FTUS45 KFGZ 301600 AAC
TAFFLG
TAF AMD
KFLG 301627Z 3016/3112 06008KT 3SM -RA BR OVC005
      TEMPO 3016/3019 1SM -RA BR OVC003
     FM301900 12010KT 5SM -RA BR OVC005=



000
FTUS45 KFGZ 301600 AAA
TAFPGA
TAF AMD
KPGA 301626Z 3016/3112 10008KT 5SM -RA SCT015 OVC025
      TEMPO 3016/3019 3SM -RA BR BKN015
      AMD NOT SKED=



000
FTUS45 KFGZ 301500 AAB
TAFINW
TAF AMD
KINW 301517Z 3015/3112 10010KT 6SM -RA BR BKN025 BKN060 OVC090
     FM301700 11010KT 5SM -RA BR BKN020 OVC050=



000
FTUS45 KFGZ 301500 AAB
TAFFLG
TAF AMD
KFLG 301506Z 3015/3112 06008KT 4SM -RA BR OVC004
      TEMPO 3015/3018 3SM -RA BR OVC004
     FM301800 12010KT 5SM -RA BR OVC005=



000
FTUS45 KFGZ 301300 AAA
TAFFLG
TAF AMD
KFLG 301359Z 3014/3112 09008KT 1SM -RA BR OVC002
      TEMPO 3014/3018 2SM -RA BR OVC004
     FM301800 12010KT 2SM -RA BR OVC005=



000
FTUS45 KFGZ 301300 AAA
TAFINW
TAF AMD
KINW 301356Z 3014/3112 10010KT 6SM -RA BR OVC050
     FM301700 11010KT 4SM -RA BR BKN020 OVC050=



000
FTUS45 KFGZ 301100
TAFFLG
TAF
KFLG 301138Z 3012/3112 09008KT 6SM -RA BR OVC004
      TEMPO 3012/3016 3SM -RA BR OVC006=



000
FTUS45 KFGZ 301100
TAFPGA
TAF
KPGA 301138Z 3012/3112 18009KT 3SM -RA BR SCT003 BKN015 OVC025
      TEMPO 3012/3016 1SM -RA BR BKN003
     FM301600 10008KT 1SM -RA BR BKN008 OVC015
      AMD NOT SKED=



000
FTUS45 KFGZ 301100
TAFINW
TAF
KINW 301138Z 3012/3112 10010KT 6SM -RA BR SCT025 OVC050
      TEMPO 3012/3016 3SM -RA BR OVC025
     FM301600 11010KT 3SM -RA BR OVC020=



000
FTUS45 KFGZ 300900 AAC
TAFINW
TAF AMD
KINW 300913Z 3009/3106 10006KT 6SM -RA BR BKN025 OVC050
      TEMPO 3009/3013 4SM -RA BR SCT025 OVC050=



000
FTUS45 KFGZ 300700 AAB
TAFINW
TAF AMD
KINW 300742Z 3008/3106 10006KT 6SM -RA BR BKN010 OVC030
      TEMPO 3008/3012 4SM -RA BR BKN005 OVC010=



000
FTUS45 KFGZ 300600 AAA
TAFINW
TAF AMD
KINW 300658Z 3007/3106 10006KT 4SM -RA BR BKN010 OVC030=



000
FTUS45 KFGZ 300600 CCA
TAFPGA
TAF COR
KPGA 300626Z 3006/3106 VRB05KT 6SM -SHRA SCT025 OVC045
     FM300800 18009KT 4SM -RA BR BKN015 OVC025
      AMD NOT SKED=



000
FTUS45 KFGZ 300500
TAFFLG
TAF
KFLG 300520Z 3006/3106 09007KT 3SM -RA BR BKN005 OVC012=



000
FTUS45 KFGZ 300500
TAFINW
TAF
KINW 300520Z 3006/3106 VRB05KT 5SM -SHRA SCT025 OVC040
     FM300700 10006KT 4SM -RA BR SCT010 OVC030=



000
FTUS45 KFGZ 300500
TAFPGA
TAF
KPGA 300520Z 3006/3106 VRB05KT 6SM -SHRA SCT025 OVC045
     FM300800 18009KT 4SM -RA BR BKN015 OVC025=



000
FTUS45 KFGZ 292300 AAA
TAFPGA
TAF AMD
KPGA 292334Z 3000/3024 VRB03KT P6SM OVC100
     FM300300 VRB03KT P6SM VCSH OVC050
     FM300600 VRB05KT 5SM -SHRA BKN025 OVC045
     FM300900 18009KT 3SM -RA BR BKN015 OVC025
      AMD NOT SKED=



000
FTUS45 KFGZ 292300
TAFPGA
TAF
KPGA 292328Z 3000/3024 VRB03KT P6SM OVC100
     FM300300 VRB03KT P6SM VCSH OVC050
     FM300600 VRB05KT 5SM -SHRA BKN025 OVC045
     FM300900 18009KT 3SM -RA BR BKN015 OVC025=



000
FTUS45 KFGZ 292300
TAFINW
TAF
KINW 292328Z 3000/3024 VRB05KT P6SM VCSH BKN070 OVC100
     FM300300 VRB05KT 5SM -SHRA SCT025 OVC040
     FM300700 10006KT 3SM -RA BR SCT010 OVC030=



000
FTUS45 KFGZ 292300
TAFFLG
TAF
KFLG 292328Z 3000/3024 08007KT 5SM -SHRA SCT020 OVC035
     FM300400 08008KT 3SM -RA BR BKN005 OVC012=



000
FTUS45 KFGZ 292000 AAA
TAFPGA
TAF AMD
KPGA 292038Z 2921/3018 VRB03KT P6SM OVC100
     FM300500 VRB03KT P6SM VCSH OVC050
     FM300800 VRB05KT 5SM -SHRA BKN025 OVC045
     FM301100 18009KT 3SM -RA BR BKN015 OVC025
      AMD NOT SKED=



000
FTUS45 KFGZ 291700
TAFFLG
TAF
KFLG 291730Z 2918/3018 09009KT P6SM OVC100
     FM300000 08007KT P6SM VCSH BKN060 OVC090
     FM300300 09006KT 5SM -SHRA SCT020 OVC035
     FM300600 08008KT 3SM -RA BR BKN005 OVC012=



000
FTUS45 KFGZ 291700
TAFPGA
TAF
KPGA 291730Z 2918/3018 VRB03KT P6SM OVC100
     FM300500 VRB03KT P6SM VCSH OVC050
     FM300800 VRB05KT 5SM -SHRA BKN025 OVC045
     FM301100 18009KT 3SM -RA BR BKN015 OVC025=



000
FTUS45 KFGZ 291700
TAFINW
TAF
KINW 291730Z 2918/3018 VRB05KT P6SM BKN120 OVC150
     FM300200 VRB05KT P6SM VCSH OVC060
     FM300500 VRB05KT 5SM -SHRA SCT025 OVC040
     FM301200 10006KT 3SM -RA BR SCT010 OVC030=



000
FTUS45 KFGZ 291100
TAFFLG
TAF
KFLG 291120Z 2912/3012 VRB04KT P6SM BKN120 OVC200
     FM291730 09008KT P6SM BKN080 OVC120
     FM300300 11006KT 6SM -SHRA BR SCT020 OVC030
     FM300600 08008KT 3SM -RA BR BKN010 OVC020=



000
FTUS45 KFGZ 291100
TAFPGA
TAF
KPGA 291120Z 2912/3012 VRB06KT P6SM BKN120 OVC200
     FM300900 17005KT P6SM BKN030 OVC060=



000
FTUS45 KFGZ 291100
TAFINW
TAF
KINW 291120Z 2912/3012 VRB05KT P6SM BKN120 BKN200
     FM300400 15006KT 6SM -SHRA BR FEW010 BKN020 OVC030=



000
FTUS45 KFGZ 290500
TAFINW
TAF
KINW 290534Z 2906/3006 VRB05KT P6SM SCT120 BKN200
     FM291200 VRB05KT P6SM BKN120 BKN200
     FM292330 VRB05KT P6SM SCT080 OVC110=



000
FTUS45 KFGZ 290500
TAFPGA
TAF
KPGA 290534Z 2906/3006 VRB03KT P6SM FEW120 OVC200
     FM291000 VRB03KT P6SM BKN120 OVC200=



000
FTUS45 KFGZ 290500
TAFFLG
TAF
KFLG 290534Z 2906/3006 VRB03KT P6SM FEW120 OVC200
     FM291000 VRB03KT P6SM BKN120 OVC200
     FM291730 06008KT P6SM BKN080 OVC120
     FM300200 05006KT P6SM -SHRA SCT020 OVC040=



000
FTUS45 KFGZ 282300
TAFFLG
TAF
KFLG 282334Z 2900/2924 VRB05KT P6SM FEW020 BKN200
     FM291000 VRB03KT P6SM BKN110 OVC150
     FM291700 08008KT P6SM BKN100 OVC150=



000
FTUS45 KFGZ 282300
TAFPGA
TAF
KPGA 282334Z 2900/2924 VRB05KT P6SM FEW006 BKN200
     FM291000 VRB03KT P6SM BKN120 OVC150
      AMD NOT SKED=



000
FTUS45 KFGZ 282300
TAFINW
TAF
KINW 282334Z 2900/2924 VRB05KT P6SM FEW020 BKN200
     FM291200 VRB05KT P6SM BKN140 OVC180=



000
FTUS45 KFGZ 282200 AAD
TAFPGA
TAF AMD
KPGA 282235Z 2823/2918 VRB05KT P6SM FEW006
     FM291000 VRB03KT P6SM BKN140 OVC180
      AMD NOT SKED=



000
FTUS45 KFGZ 282100 AAC
TAFPGA
TAF AMD
KPGA 282124Z 2821/2918 VRB05KT P6SM VCFG BKN006
     FM291000 VRB03KT P6SM BKN140 OVC180
      AMD NOT SKED=



000
FTUS45 KFGZ 282000 AAB
TAFPGA
TAF AMD
KPGA 282019Z 2820/2918 VRB05KT P6SM VCFG OVC004
     FM291000 VRB03KT P6SM BKN140 OVC180
      AMD NOT SKED=



000
FTUS45 KFGZ 281800 AAA
TAFPGA
TAF AMD
KPGA 281850Z 2819/2918 VRB05KT P6SM VCFG BKN005 BKN200
     FM291000 VRB03KT P6SM BKN140 OVC180
      AMD NOT SKED=



000
FTUS45 KFGZ 281700
TAFINW
TAF
KINW 281726Z 2818/2918 VRB05KT P6SM FEW020 BKN200
     FM291200 VRB05KT P6SM BKN140 OVC180=



000
FTUS45 KFGZ 281700
TAFFLG
TAF
KFLG 281726Z 2818/2918 VRB05KT P6SM FEW020 BKN200
     FM291000 VRB03KT P6SM BKN110 OVC150=



000
FTUS45 KFGZ 281700
TAFPGA
TAF
KPGA 281726Z 2818/2918 VRB05KT 1SM BR BKN001
     FM281900 VRB05KT P6SM VCFG SCT001 BKN200
     FM291000 VRB03KT P6SM BKN140 OVC180
      AMD NOT SKED=



000
FTUS45 KFGZ 281600 AAA
TAFPGA
TAF AMD
KPGA 281649Z 2817/2912 VRB05KT 1/4SM FG VV001
     FM281900 VRB05KT P6SM FEW001 BKN200
      AMD NOT SKED=



000
FTUS45 KFGZ 281500 AAB
TAFINW
TAF AMD
KINW 281550Z 2816/2912 VRB05KT P6SM FEW002 FEW020
     FM281800 VRB05KT P6SM FEW020 SCT250=



000
FTUS45 KFGZ 281500 AAB
TAFINW
TAF AMD
KINW 281550Z 2816/2912 VRB05KT P6SM FEW002 FEW020
     FM281800 VRB05KT P6SM FEW020 SCT250=



000
FTUS45 KFGZ 281400 AAA
TAFINW
TAF AMD
KINW 281423Z 2814/2912 VRB04KT 1SM BR VV002
      TEMPO 2814/2817 1/4SM FZFG VV001
     FM281700 VRB05KT 4SM BR FEW002 BKN020
     FM281800 VRB05KT P6SM FEW020 SCT250=



000
FTUS45 KFGZ 281400 AAA
TAFINW
TAF AMD
KINW 281423Z 2814/2912 VRB04KT 1SM BR VV002
      TEMPO 2814/2817 1/4SM FZFG VV001
     FM281700 VRB05KT 4SM BR FEW002 BKN020
     FM281800 VRB05KT P6SM FEW020 SCT250=



000
FTUS45 KFGZ 281300 AAA
TAFFLG
TAF AMD
KFLG 281303Z 2813/2912 VRB02KT P6SM VCFG FEW001
     FM281400 VRB04KT P6SM FEW002 FEW250
     FM281600 VRB05KT P6SM FEW020 SCT250=



000
FTUS45 KFGZ 281100
TAFINW
TAF
KINW 281120Z 2812/2912 VRB05KT P6SM SCT250=



000
FTUS45 KFGZ 281100
TAFFLG
TAF
KFLG 281120Z 2812/2912 VRB02KT 1SM BR VV002
      TEMPO 2812/2814 1/2SM FZFG VV001
     FM281400 VRB04KT P6SM FEW002 BKN020
     FM281600 VRB05KT P6SM FEW020 SCT250=



000
FTUS45 KFGZ 281100
TAFPGA
TAF
KPGA 281120Z 2812/2912 VRB05KT P6SM SCT250=



000
FTUS45 KFGZ 280800 AAC
TAFFLG
TAF AMD
KFLG 280828Z 2808/2906 VRB02KT 1/4SM FZFG VV001
      TEMPO 2808/2812 1/2SM FZFG VV002
     FM281200 VRB02KT 2SM BR SCT002 SCT009 BKN018
     FM281700 VRB06KT P6SM BKN200=



000
FTUS45 KFGZ 280700 AAB
TAFFLG
TAF AMD
KFLG 280753Z 2808/2906 VRB02KT P6SM SCT002
      TEMPO 2808/2811 4SM BR BKN002
     FM281100 VRB02KT 2SM BR SCT002 SCT009 BKN018
     FM281700 VRB06KT P6SM BKN200=



000
FTUS45 KFGZ 280700 AAB
TAFFLG
TAF AMD
KFLG 280753Z 2808/2906 VRB02KT P6SM SCT002
      TEMPO 2808/2811 4SM BR BKN002
     FM281100 VRB02KT 2SM BR SCT002 SCT009 BKN018
     FM281700 VRB06KT P6SM BKN200=



000
FTUS45 KFGZ 280600 AAA
TAFFLG
TAF AMD
KFLG 280636Z 2807/2906 VRB02KT P6SM FEW009 SCT022 BKN029
      TEMPO 2807/2811 4SM BR SCT003 BKN009
     FM281100 VRB02KT 2SM BR SCT002 SCT009 BKN018
     FM281700 VRB06KT P6SM BKN200=



000
FTUS45 KFGZ 280600 AAA
TAFFLG
TAF AMD
KFLG 280636Z 2807/2906 VRB02KT P6SM FEW009 SCT022 BKN029
      TEMPO 2807/2811 4SM BR SCT003 BKN009
     FM281100 VRB02KT 2SM BR SCT002 SCT009 BKN018
     FM281700 VRB06KT P6SM BKN200=



000
FTUS45 KFGZ 280500 RRA
TAFPGA
TAF
KPGA 280544Z 2806/2906 VRB04KT P6SM FEW250
     FM281800 VRB04KT P6SM BKN200=



000
FTUS45 KFGZ 280500 RRA
TAFFLG
TAF
KFLG 280544Z 2806/2906 VRB02KT P6SM FEW250
     FM281800 VRB06KT P6SM BKN200=



000
FTUS45 KFGZ 280500 RRA
TAFINW
TAF
KINW 280544Z 2806/2906 VRB05KT P6SM SCT070 SCT250
     FM281300 VRB03KT 4SM BR SCT250
     FM281600 VRB05KT P6SM BKN200=



000
FTUS45 KFGZ 272300
TAFINW
TAF
KINW 272324Z 2800/2824 VRB06KT P6SM BKN050
     FM280200 VRB04KT P6SM SCT040 SCT250
     FM280600 VRB05KT P6SM SCT250
     FM281300 VRB03KT 4SM BR SCT250
     FM281600 VRB05KT P6SM SCT250=



000
FTUS45 KFGZ 272300
TAFFLG
TAF
KFLG 272324Z 2800/2824 22011KT P6SM SCT040
     FM280200 VRB03KT P6SM SCT040 SCT250
     FM280600 VRB03KT P6SM FEW040 SCT250=



000
FTUS45 KFGZ 272300
TAFPGA
TAF
KPGA 272324Z 2800/2824 VRB06KT P6SM FEW050 BKN080
     FM280200 VRB04KT P6SM SCT070 SCT250=



    US Dept of Commerce
    National Oceanic and Atmospheric Administration
    National Weather Service
    1325 East West Highway
    Silver Spring, MD 20910
    Page Author: NWS Internet Services Team
Disclaimer
Information Quality
Credits
Glossary
Privacy Policy
Freedom of Information Act (FOIA)
About Us
Career Opportunities